Аэропорт: Габала. Габала

ICAO: UBBQ

METAR:
2020-08-09 23:00:00
UBBQ 092300Z 14003KT 9999 NSC 19/13 Q1008 R16/////// NOSIG RMK MT OP
METAR:
Информация по данной станции не доступна